createdAt,value
2022-11-24T00:00:32.160Z,1026.5
2022-11-24T00:01:32.161Z,1026.6
2022-11-24T00:02:32.261Z,1026.6
2022-11-24T00:03:32.193Z,1026.6
2022-11-24T00:04:32.552Z,1026.6
2022-11-24T00:05:32.150Z,1026.7
2022-11-24T00:06:32.144Z,1026.7
2022-11-24T00:07:32.177Z,1026.7
2022-11-24T00:08:32.144Z,1026.7
2022-11-24T00:09:32.138Z,1026.7
2022-11-24T00:10:32.142Z,1026.7
2022-11-24T00:11:32.168Z,1026.7
2022-11-24T00:12:32.148Z,1026.7
2022-11-24T00:13:32.154Z,1026.7
2022-11-24T00:15:29.648Z,1026.7
2022-11-24T00:16:25.167Z,1026.7
2022-11-24T00:17:25.054Z,1026.7
2022-11-24T00:18:25.058Z,1026.8
2022-11-24T00:19:25.093Z,1026.8
2022-11-24T00:20:25.050Z,1026.8
2022-11-24T00:21:25.043Z,1026.8
2022-11-24T00:22:25.049Z,1026.8
2022-11-24T00:23:25.032Z,1026.8
2022-11-24T00:24:25.081Z,1026.8
2022-11-24T00:25:25.032Z,1026.8
2022-11-24T00:26:35.060Z,1026.8
2022-11-24T00:27:29.187Z,1026.8
2022-11-24T00:28:27.359Z,1026.8
2022-11-24T00:29:27.384Z,1026.8
2022-11-24T00:30:25.157Z,1026.9
2022-11-24T00:31:25.095Z,1026.8
2022-11-24T00:32:25.082Z,1026.9
2022-11-24T00:33:25.032Z,1026.8
2022-11-24T00:34:25.077Z,1026.9
2022-11-24T00:35:25.017Z,1026.8
2022-11-24T00:36:25.041Z,1026.9
2022-11-24T00:37:25.129Z,1026.9
2022-11-24T00:38:25.049Z,1026.8
2022-11-24T00:39:25.105Z,1026.8
2022-11-24T00:40:25.097Z,1026.9
2022-11-24T00:41:25.073Z,1026.8
2022-11-24T00:42:25.110Z,1026.9
2022-11-24T00:43:25.044Z,1026.9
2022-11-24T00:44:25.063Z,1026.9
2022-11-24T00:45:25.011Z,1026.9
2022-11-24T00:46:25.138Z,1026.9
2022-11-24T00:47:25.093Z,1026.9
2022-11-24T00:48:25.010Z,1026.9
2022-11-24T00:49:25.053Z,1026.9
2022-11-24T00:50:25.012Z,1026.9
2022-11-24T00:51:25.020Z,1027
2022-11-24T00:52:24.999Z,1027
2022-11-24T00:53:25.011Z,1027
2022-11-24T00:54:25.055Z,1027
2022-11-24T00:55:25.006Z,1027
2022-11-24T00:56:25.076Z,1026.9
2022-11-24T00:57:24.986Z,1026.9
2022-11-24T00:58:24.994Z,1026.9
2022-11-24T00:59:25.029Z,1026.9
2022-11-24T01:00:24.994Z,1026.9
2022-11-24T01:01:25.034Z,1026.9
2022-11-24T01:02:25.064Z,1026.9
2022-11-24T01:03:25.007Z,1026.9
2022-11-24T01:04:25.021Z,1027
2022-11-24T01:05:25.003Z,1027
2022-11-24T01:06:24.995Z,1027
2022-11-24T01:07:25.056Z,1026.9
2022-11-24T01:08:24.996Z,1027
2022-11-24T01:09:24.987Z,1027
2022-11-24T01:10:24.994Z,1027
2022-11-24T01:11:24.982Z,1027
2022-11-24T01:12:25.031Z,1027
2022-11-24T01:13:24.986Z,1027.1
2022-11-24T01:14:25.081Z,1027.1
2022-11-24T01:15:25.097Z,1027
2022-11-24T01:16:25.065Z,1027
2022-11-24T01:17:24.976Z,1027
2022-11-24T01:18:24.978Z,1027.1
2022-11-24T01:19:24.981Z,1027.1
2022-11-24T01:20:25.035Z,1027.1
2022-11-24T01:21:24.984Z,1027.1
2022-11-24T01:22:25.027Z,1027.1
2022-11-24T01:23:24.967Z,1027.1
2022-11-24T01:24:24.968Z,1027.2
2022-11-24T01:25:25.004Z,1027.2
2022-11-24T01:26:24.974Z,1027.2
2022-11-24T01:27:25.080Z,1027.2
2022-11-24T01:28:24.962Z,1027.3
2022-11-24T01:29:25.000Z,1027.3
2022-11-24T01:30:24.963Z,1027.3
2022-11-24T01:31:25.060Z,1027.3
2022-11-24T01:32:24.958Z,1027.3
2022-11-24T01:33:24.963Z,1027.3
2022-11-24T01:34:25.000Z,1027.3
2022-11-24T01:35:24.954Z,1027.3
2022-11-24T01:36:24.972Z,1027.3
2022-11-24T01:37:25.025Z,1027.3
2022-11-24T01:38:24.957Z,1027.3
2022-11-24T01:39:25.320Z,1027.3
2022-11-24T01:40:26.036Z,1027.3
2022-11-24T01:41:25.032Z,1027.3
2022-11-24T01:42:25.022Z,1027.3
2022-11-24T01:43:24.954Z,1027.4
2022-11-24T01:44:24.969Z,1027.4
2022-11-24T01:45:24.953Z,1027.4
2022-11-24T01:46:24.995Z,1027.4
2022-11-24T01:47:24.981Z,1027.4
2022-11-24T01:48:27.341Z,1027.3
2022-11-24T01:49:24.985Z,1027.3
2022-11-24T01:50:24.966Z,1027.3
2022-11-24T01:51:25.049Z,1027.4
2022-11-24T01:52:25.021Z,1027.4
2022-11-24T01:53:24.928Z,1027.4
2022-11-24T01:54:24.927Z,1027.4
2022-11-24T01:55:24.971Z,1027.4
2022-11-24T01:56:24.920Z,1027.4
2022-11-24T01:57:24.941Z,1027.4
2022-11-24T01:58:24.954Z,1027.4
2022-11-24T01:59:24.930Z,1027.4
2022-11-24T02:00:24.973Z,1027.4
2022-11-24T02:01:25.017Z,1027.4
2022-11-24T02:02:24.954Z,1027.4
2022-11-24T02:03:24.925Z,1027.4
2022-11-24T02:04:24.915Z,1027.4
2022-11-24T02:05:24.961Z,1027.4
2022-11-24T02:06:24.909Z,1027.4
2022-11-24T02:07:25.041Z,1027.4
2022-11-24T02:08:24.951Z,1027.4
2022-11-24T02:09:24.929Z,1027.4
2022-11-24T02:10:24.909Z,1027.4
2022-11-24T02:11:24.910Z,1027.4
2022-11-24T02:12:24.924Z,1027.4
2022-11-24T02:13:24.950Z,1027.4
2022-11-24T02:14:24.921Z,1027.4
2022-11-24T02:15:24.912Z,1027.3
2022-11-24T02:16:24.956Z,1027.3
2022-11-24T02:17:24.901Z,1027.3
2022-11-24T02:18:24.924Z,1027.3
2022-11-24T02:19:24.920Z,1027.3
2022-11-24T02:20:25.189Z,1027.3
2022-11-24T02:21:24.967Z,1027.3
2022-11-24T02:22:24.977Z,1027.4
2022-11-24T02:23:25.006Z,1027.4
2022-11-24T02:24:24.909Z,1027.4
2022-11-24T02:25:24.886Z,1027.4
2022-11-24T02:26:24.887Z,1027.4
2022-11-24T02:27:24.886Z,1027.5
2022-11-24T02:28:24.929Z,1027.5
2022-11-24T02:29:24.881Z,1027.5
2022-11-24T02:30:24.878Z,1027.5
2022-11-24T02:31:24.966Z,1027.5
2022-11-24T02:32:24.878Z,1027.5
2022-11-24T02:33:24.890Z,1027.5
2022-11-24T02:34:24.869Z,1027.5
2022-11-24T02:35:24.877Z,1027.5
2022-11-24T02:36:24.951Z,1027.5
2022-11-24T02:37:24.892Z,1027.5
2022-11-24T02:38:24.974Z,1027.4
2022-11-24T02:39:24.878Z,1027.4
2022-11-24T02:40:24.904Z,1027.4
2022-11-24T02:41:24.859Z,1027.4
2022-11-24T02:42:24.865Z,1027.4
2022-11-24T02:43:24.914Z,1027.4
2022-11-24T02:44:24.875Z,1027.4
2022-11-24T02:45:24.866Z,1027.4
2022-11-24T02:46:24.958Z,1027.4
2022-11-24T02:47:25.168Z,1027.3
2022-11-24T02:48:24.860Z,1027.3
2022-11-24T02:49:24.849Z,1027.3
2022-11-24T02:50:24.859Z,1027.3
2022-11-24T02:51:24.923Z,1027.3
2022-11-24T02:52:24.863Z,1027.3
2022-11-24T02:53:24.859Z,1027.3
2022-11-24T02:54:24.920Z,1027.3
2022-11-24T02:55:24.986Z,1027.3
2022-11-24T02:56:24.875Z,1027.4
2022-11-24T02:57:24.855Z,1027.4
2022-11-24T02:58:24.846Z,1027.4
2022-11-24T02:59:27.349Z,1027.4
2022-11-24T03:00:25.084Z,1027.4
2022-11-24T03:01:25.111Z,1027.4
2022-11-24T03:02:24.910Z,1027.5
2022-11-24T03:03:24.876Z,1027.4
2022-11-24T03:04:25.022Z,1027.4
2022-11-24T03:05:24.952Z,1027.4
2022-11-24T03:06:29.462Z,1027.4
2022-11-24T03:07:25.092Z,1027.4
2022-11-24T03:08:24.889Z,1027.4
2022-11-24T03:09:24.837Z,1027.4
2022-11-24T03:10:24.921Z,1027.4
2022-11-24T03:11:24.927Z,1027.4
2022-11-24T03:12:24.885Z,1027.4
2022-11-24T03:13:24.835Z,1027.4
2022-11-24T03:14:24.926Z,1027.4
2022-11-24T03:15:24.830Z,1027.3
2022-11-24T03:16:24.881Z,1027.3
2022-11-24T03:17:24.966Z,1027.3
2022-11-24T03:18:24.831Z,1027.3
2022-11-24T03:19:24.852Z,1027.3
2022-11-24T03:20:24.834Z,1027.3
2022-11-24T03:21:24.835Z,1027.3
2022-11-24T03:22:24.944Z,1027.4
2022-11-24T03:23:24.812Z,1027.4
2022-11-24T03:24:26.388Z,1027.4
2022-11-24T03:25:24.830Z,1027.4
2022-11-24T03:26:24.825Z,1027.4
2022-11-24T03:27:24.859Z,1027.4
2022-11-24T03:28:24.828Z,1027.4
2022-11-24T03:29:24.938Z,1027.4
2022-11-24T03:30:24.903Z,1027.4
2022-11-24T03:31:24.869Z,1027.4
2022-11-24T03:32:24.807Z,1027.4
2022-11-24T03:33:24.798Z,1027.3
2022-11-24T03:34:24.811Z,1027.3
2022-11-24T03:35:24.797Z,1027.3
2022-11-24T03:36:24.812Z,1027.3
2022-11-24T03:37:24.805Z,1027.2
2022-11-24T03:38:24.834Z,1027.2
2022-11-24T03:39:24.834Z,1027.2
2022-11-24T03:40:24.804Z,1027.2
2022-11-24T03:41:24.791Z,1027.2
2022-11-24T03:42:24.803Z,1027.2
2022-11-24T03:43:24.799Z,1027.2
2022-11-24T03:44:24.843Z,1027.2
2022-11-24T03:45:45.306Z,1027.2
2022-11-24T03:46:24.903Z,1027.2
2022-11-24T03:47:24.790Z,1027.2
2022-11-24T03:48:24.788Z,1027.2
2022-11-24T03:49:24.778Z,1027.2
2022-11-24T03:50:24.792Z,1027.2
2022-11-24T03:51:24.776Z,1027.2
2022-11-24T03:52:24.827Z,1027.2
2022-11-24T03:53:24.790Z,1027.2
2022-11-24T03:54:24.790Z,1027.2
2022-11-24T03:55:24.786Z,1027.2
2022-11-24T03:56:24.766Z,1027.2
2022-11-24T03:57:24.826Z,1027.3
2022-11-24T03:58:24.773Z,1027.2
2022-11-24T03:59:24.784Z,1027.3
2022-11-24T04:00:24.826Z,1027.3
2022-11-24T04:01:24.865Z,1027.3
2022-11-24T04:02:24.822Z,1027.3
2022-11-24T04:03:24.792Z,1027.3
2022-11-24T04:04:24.788Z,1027.3
2022-11-24T04:05:24.815Z,1027.3
2022-11-24T04:06:24.789Z,1027.4
2022-11-24T04:07:24.820Z,1027.4
2022-11-24T04:08:24.790Z,1027.4
2022-11-24T04:09:24.780Z,1027.4
2022-11-24T04:10:24.758Z,1027.4
2022-11-24T04:11:24.744Z,1027.4
2022-11-24T04:12:24.753Z,1027.4
2022-11-24T04:13:24.825Z,1027.4
2022-11-24T04:14:24.760Z,1027.3
2022-11-24T04:15:24.755Z,1027.4
2022-11-24T04:16:24.820Z,1027.4
2022-11-24T04:17:24.806Z,1027.4
2022-11-24T04:18:24.797Z,1027.4
2022-11-24T04:19:24.739Z,1027.4
2022-11-24T04:20:24.756Z,1027.4
2022-11-24T04:21:24.801Z,1027.4
2022-11-24T04:22:24.739Z,1027.4
2022-11-24T04:23:24.743Z,1027.4
2022-11-24T04:24:24.758Z,1027.4
2022-11-24T04:25:24.750Z,1027.4
2022-11-24T04:26:24.812Z,1027.4
2022-11-24T04:27:24.734Z,1027.4
2022-11-24T04:28:24.736Z,1027.4
2022-11-24T04:29:24.727Z,1027.4
2022-11-24T04:30:24.738Z,1027.4
2022-11-24T04:31:24.840Z,1027.4
2022-11-24T04:32:24.771Z,1027.4
2022-11-24T04:33:24.768Z,1027.4
2022-11-24T04:34:24.769Z,1027.3
2022-11-24T04:35:24.761Z,1027.3
2022-11-24T04:36:24.736Z,1027.3
2022-11-24T04:37:24.719Z,1027.3
2022-11-24T04:39:20.286Z,1027.3
2022-11-24T04:39:28.531Z,1027.3
2022-11-24T04:40:24.755Z,1027.3
2022-11-24T04:41:24.738Z,1027.3
2022-11-24T04:42:24.719Z,1027.3
2022-11-24T04:43:24.743Z,1027.3
2022-11-24T04:44:24.768Z,1027.3
2022-11-24T04:45:24.746Z,1027.3
2022-11-24T04:46:24.732Z,1027.3
2022-11-24T04:47:24.739Z,1027.3
2022-11-24T04:48:24.712Z,1027.3
2022-11-24T04:49:24.714Z,1027.3
2022-11-24T04:50:24.696Z,1027.2
2022-11-24T04:51:24.716Z,1027.3
2022-11-24T04:52:24.749Z,1027.3
2022-11-24T04:53:24.703Z,1027.3
2022-11-24T04:54:24.708Z,1027.3
2022-11-24T04:55:24.701Z,1027.3
2022-11-24T04:56:24.698Z,1027.3
2022-11-24T04:57:24.728Z,1027.3
2022-11-24T04:58:24.709Z,1027.3
2022-11-24T04:59:24.699Z,1027.3
2022-11-24T05:00:24.730Z,1027.3
2022-11-24T05:01:24.745Z,1027.3
2022-11-24T05:02:24.691Z,1027.3
2022-11-24T05:03:24.715Z,1027.3
2022-11-24T05:04:24.753Z,1027.3
2022-11-24T05:05:24.796Z,1027.3
2022-11-24T05:06:24.690Z,1027.3
2022-11-24T05:07:24.719Z,1027.4
2022-11-24T05:08:24.682Z,1027.4
2022-11-24T05:09:36.859Z,1027.4
2022-11-24T05:10:24.727Z,1027.4
2022-11-24T05:11:24.668Z,1027.4
2022-11-24T05:12:24.677Z,1027.4
2022-11-24T05:13:24.712Z,1027.4
2022-11-24T05:14:24.726Z,1027.4
2022-11-24T05:15:24.650Z,1027.4
2022-11-24T05:16:24.752Z,1027.4
2022-11-24T05:17:24.633Z,1027.4
2022-11-24T05:18:24.690Z,1027.4
2022-11-24T05:19:27.328Z,1027.4
2022-11-24T05:20:24.644Z,1027.4
2022-11-24T05:21:24.730Z,1027.4
2022-11-24T05:22:24.664Z,1027.4
2022-11-24T05:23:24.703Z,1027.3
2022-11-24T05:24:24.722Z,1027.3
2022-11-24T05:25:24.646Z,1027.3
2022-11-24T05:26:24.646Z,1027.3
2022-11-24T05:27:24.655Z,1027.3
2022-11-24T05:28:24.700Z,1027.2
2022-11-24T05:29:24.658Z,1027.2
2022-11-24T05:30:24.648Z,1027.2
2022-11-24T05:31:24.686Z,1027.3
2022-11-24T05:32:24.672Z,1027.3
2022-11-24T05:33:24.659Z,1027.3
2022-11-24T05:34:24.638Z,1027.3
2022-11-24T05:35:24.702Z,1027.3
2022-11-24T05:36:24.692Z,1027.3
2022-11-24T05:37:24.648Z,1027.3
2022-11-24T05:38:24.643Z,1027.3
2022-11-24T05:39:24.619Z,1027.3
2022-11-24T05:40:24.659Z,1027.3
2022-11-24T05:41:24.698Z,1027.3
2022-11-24T05:42:24.694Z,1027.3
2022-11-24T05:43:24.674Z,1027.4
2022-11-24T05:44:24.644Z,1027.4
2022-11-24T05:45:24.626Z,1027.3
2022-11-24T05:46:24.673Z,1027.3
2022-11-24T05:47:24.625Z,1027.3
2022-11-24T05:48:24.632Z,1027.3
2022-11-24T05:49:24.670Z,1027.4
2022-11-24T05:50:24.672Z,1027.3
2022-11-24T05:51:24.608Z,1027.4
2022-11-24T05:52:24.689Z,1027.4
2022-11-24T05:53:24.607Z,1027.4
2022-11-24T05:54:24.631Z,1027.4
2022-11-24T05:55:24.619Z,1027.4
2022-11-24T05:56:24.601Z,1027.4
2022-11-24T05:57:24.654Z,1027.4
2022-11-24T05:58:24.668Z,1027.4
2022-11-24T05:59:24.620Z,1027.4
2022-11-24T06:00:24.620Z,1027.4
2022-11-24T06:01:24.618Z,1027.4
2022-11-24T06:02:24.703Z,1027.4
2022-11-24T06:03:24.613Z,1027.4
2022-11-24T06:04:24.649Z,1027.4
2022-11-24T06:05:24.643Z,1027.4
2022-11-24T06:06:24.641Z,1027.5
2022-11-24T06:07:24.728Z,1027.5
2022-11-24T06:08:29.616Z,1027.5
2022-11-24T06:09:24.598Z,1027.5
2022-11-24T06:10:24.604Z,1027.5
2022-11-24T06:11:24.629Z,1027.5
2022-11-24T06:12:24.662Z,1027.6
2022-11-24T06:13:24.657Z,1027.6
2022-11-24T06:14:24.595Z,1027.6
2022-11-24T06:15:24.589Z,1027.7
2022-11-24T06:16:24.668Z,1027.7
2022-11-24T06:17:25.779Z,1027.7
2022-11-24T06:18:24.618Z,1027.7
2022-11-24T06:19:24.648Z,1027.7
2022-11-24T06:20:28.464Z,1027.7
2022-11-24T06:21:24.580Z,1027.7
2022-11-24T06:22:24.587Z,1027.7
2022-11-24T06:23:24.592Z,1027.7
2022-11-24T06:24:24.593Z,1027.7
2022-11-24T06:25:24.639Z,1027.7
2022-11-24T06:26:24.564Z,1027.7
2022-11-24T06:27:24.574Z,1027.7
2022-11-24T06:28:24.583Z,1027.7
2022-11-24T06:29:24.653Z,1027.7
2022-11-24T06:30:24.629Z,1027.7
2022-11-24T06:31:24.598Z,1027.7
2022-11-24T06:32:24.560Z,1027.7
2022-11-24T06:33:24.607Z,1027.8
2022-11-24T06:34:24.558Z,1027.8
2022-11-24T06:35:25.995Z,1027.8
2022-11-24T06:36:24.643Z,1027.8
2022-11-24T06:37:24.547Z,1027.8
2022-11-24T06:38:24.612Z,1027.8
2022-11-24T06:39:24.586Z,1027.8
2022-11-24T06:40:24.565Z,1027.8
2022-11-24T06:41:24.565Z,1027.8
2022-11-24T06:42:24.573Z,1027.8
2022-11-24T06:43:24.597Z,1027.7
2022-11-24T06:44:24.549Z,1027.7
2022-11-24T06:45:24.547Z,1027.7
2022-11-24T06:46:24.594Z,1027.7
2022-11-24T06:47:24.575Z,1027.7
2022-11-24T06:48:24.626Z,1027.7
2022-11-24T06:49:24.541Z,1027.6
2022-11-24T06:50:26.926Z,1027.6
2022-11-24T06:51:24.557Z,1027.6
2022-11-24T06:52:24.553Z,1027.6
2022-11-24T06:53:24.549Z,1027.6
2022-11-24T06:54:24.560Z,1027.5
2022-11-24T06:55:24.569Z,1027.5
2022-11-24T06:56:24.582Z,1027.5
2022-11-24T06:57:24.519Z,1027.6
2022-11-24T06:58:24.571Z,1027.6
2022-11-24T06:59:25.630Z,1027.6
2022-11-24T07:00:28.980Z,1027.7
2022-11-24T07:01:24.710Z,1027.7
2022-11-24T07:02:24.547Z,1027.7
2022-11-24T07:03:24.598Z,1027.7
2022-11-24T07:04:25.595Z,1027.7
2022-11-24T07:05:24.542Z,1027.7
2022-11-24T07:06:24.557Z,1027.7
2022-11-24T07:07:24.656Z,1027.7
2022-11-24T07:08:24.578Z,1027.7
2022-11-24T07:09:24.551Z,1027.7
2022-11-24T07:10:24.539Z,1027.7
2022-11-24T07:11:24.547Z,1027.7
2022-11-24T07:12:24.551Z,1027.7
2022-11-24T07:13:24.611Z,1027.7
2022-11-24T07:14:24.556Z,1027.6
2022-11-24T07:15:24.495Z,1027.6
2022-11-24T07:16:24.621Z,1027.6
2022-11-24T07:17:24.510Z,1027.6
2022-11-24T07:18:24.512Z,1027.7
2022-11-24T07:19:25.164Z,1027.7
2022-11-24T07:20:24.510Z,1027.7
2022-11-24T07:21:24.588Z,1027.8
2022-11-24T07:22:24.502Z,1027.8
2022-11-24T07:23:24.536Z,1027.8
2022-11-24T07:24:24.520Z,1027.8
2022-11-24T07:25:24.515Z,1027.8
2022-11-24T07:26:24.555Z,1027.8
2022-11-24T07:27:24.521Z,1027.8
2022-11-24T07:28:24.481Z,1027.8
2022-11-24T07:29:24.544Z,1027.8
2022-11-24T07:30:24.508Z,1027.8
2022-11-24T07:31:24.550Z,1027.7
2022-11-24T07:32:24.493Z,1027.7
2022-11-24T07:33:24.512Z,1027.6
2022-11-24T07:34:24.564Z,1027.6
2022-11-24T07:35:24.505Z,1027.6
2022-11-24T07:36:24.527Z,1027.6
2022-11-24T07:37:28.160Z,1027.6
2022-11-24T07:38:24.468Z,1027.6
2022-11-24T07:39:24.519Z,1027.6
2022-11-24T07:40:24.575Z,1027.6
2022-11-24T07:41:24.469Z,1027.5
2022-11-24T07:42:24.568Z,1027.5
2022-11-24T07:43:24.555Z,1027.5
2022-11-24T07:44:24.558Z,1027.5
2022-11-24T07:45:24.537Z,1027.5
2022-11-24T07:46:24.573Z,1027.5
2022-11-24T07:47:24.463Z,1027.5
2022-11-24T07:48:24.444Z,1027.5
2022-11-24T07:49:24.517Z,1027.5
2022-11-24T07:50:24.576Z,1027.4
2022-11-24T07:51:24.528Z,1027.4
2022-11-24T07:52:24.481Z,1027.4
2022-11-24T07:53:24.456Z,1027.4
2022-11-24T07:54:24.506Z,1027.4
2022-11-24T07:55:24.555Z,1027.4
2022-11-24T07:56:24.473Z,1027.4
2022-11-24T07:57:24.518Z,1027.5
2022-11-24T07:58:27.655Z,1027.5
2022-11-24T07:59:24.445Z,1027.5
2022-11-24T08:00:24.532Z,1027.5
2022-11-24T08:01:24.540Z,1027.5
2022-11-24T08:02:24.527Z,1027.6
2022-11-24T08:03:24.581Z,1027.6
2022-11-24T08:04:24.466Z,1027.7
2022-11-24T08:05:24.475Z,1027.7
2022-11-24T08:06:27.630Z,1027.7
2022-11-24T08:07:24.554Z,1027.7
2022-11-24T08:08:24.473Z,1027.7
2022-11-24T08:09:24.511Z,1027.7
2022-11-24T08:10:24.471Z,1027.7
2022-11-24T08:11:24.471Z,1027.7
2022-11-24T08:12:24.454Z,1027.7
2022-11-24T08:13:24.427Z,1027.7
2022-11-24T08:14:24.425Z,1027.7
2022-11-24T08:15:24.476Z,1027.7
2022-11-24T08:16:24.526Z,1027.7
2022-11-24T08:17:24.443Z,1027.7
2022-11-24T08:18:24.483Z,1027.8
2022-11-24T08:19:24.429Z,1027.8
2022-11-24T08:20:24.588Z,1027.7
2022-11-24T08:21:24.483Z,1027.7
2022-11-24T08:22:24.440Z,1027.8
2022-11-24T08:23:24.424Z,1027.7
2022-11-24T08:24:24.432Z,1027.7
2022-11-24T08:25:24.640Z,1027.7
2022-11-24T08:26:24.522Z,1027.7
2022-11-24T08:27:24.488Z,1027.7
2022-11-24T08:28:24.441Z,1027.7
2022-11-24T08:29:24.458Z,1027.7
2022-11-24T08:30:24.488Z,1027.7
2022-11-24T08:31:24.490Z,1027.7
2022-11-24T08:32:24.528Z,1027.6
2022-11-24T08:33:24.408Z,1027.6
2022-11-24T08:34:24.448Z,1027.6
2022-11-24T08:35:24.488Z,1027.6
2022-11-24T08:36:24.487Z,1027.6
2022-11-24T08:37:24.450Z,1027.7
2022-11-24T08:38:28.659Z,1027.7
2022-11-24T08:39:24.480Z,1027.7
2022-11-24T08:40:24.527Z,1027.7
2022-11-24T08:41:24.458Z,1027.7
2022-11-24T08:42:24.430Z,1027.7
2022-11-24T08:43:26.178Z,1027.7
2022-11-24T08:44:24.449Z,1027.7
2022-11-24T08:45:25.601Z,1027.7
2022-11-24T08:46:24.526Z,1027.7
2022-11-24T08:47:24.385Z,1027.7
2022-11-24T08:48:24.421Z,1027.7
2022-11-24T08:49:24.438Z,1027.7
2022-11-24T08:50:24.407Z,1027.7
2022-11-24T08:51:24.417Z,1027.7
2022-11-24T08:52:24.396Z,1027.7
2022-11-24T08:53:24.396Z,1027.7
2022-11-24T08:54:24.412Z,1027.7
2022-11-24T08:55:24.413Z,1027.7
2022-11-24T08:56:24.412Z,1027.7
2022-11-24T08:57:24.384Z,1027.7
2022-11-24T08:58:24.377Z,1027.7
2022-11-24T08:59:24.558Z,1027.7
2022-11-24T09:00:24.379Z,1027.7
2022-11-24T09:01:24.472Z,1027.7
2022-11-24T09:02:24.434Z,1027.7
2022-11-24T09:03:24.387Z,1027.7
2022-11-24T09:04:24.435Z,1027.6
2022-11-24T09:05:50.506Z,1027.6
2022-11-24T09:06:24.454Z,1027.6
2022-11-24T09:07:24.443Z,1027.7
2022-11-24T09:08:24.366Z,1027.7
2022-11-24T09:09:24.435Z,1027.7
2022-11-24T09:10:24.365Z,1027.7
2022-11-24T09:11:24.384Z,1027.8
2022-11-24T09:12:24.382Z,1027.8
2022-11-24T09:13:24.354Z,1027.8
2022-11-24T09:14:24.359Z,1027.9
2022-11-24T09:15:24.339Z,1027.9
2022-11-24T09:16:25.691Z,1027.9
2022-11-24T09:17:24.434Z,1027.9
2022-11-24T09:18:28.954Z,1027.9
2022-11-24T09:19:24.358Z,1027.9
2022-11-24T09:20:24.363Z,1027.9
2022-11-24T09:21:24.341Z,1028
2022-11-24T09:22:24.335Z,1028
2022-11-24T09:23:24.377Z,1027.9
2022-11-24T09:24:24.392Z,1027.9
2022-11-24T09:25:24.567Z,1027.9
2022-11-24T09:26:24.347Z,1027.9
2022-11-24T09:27:24.352Z,1028
2022-11-24T09:28:24.412Z,1028
2022-11-24T09:29:24.438Z,1028
2022-11-24T09:30:24.398Z,1028
2022-11-24T09:31:24.393Z,1028
2022-11-24T09:32:24.416Z,1028
2022-11-24T09:33:24.325Z,1028
2022-11-24T09:34:24.379Z,1028
2022-11-24T09:35:24.335Z,1028
2022-11-24T09:36:24.368Z,1028.1
2022-11-24T09:37:28.180Z,1028
2022-11-24T09:38:24.324Z,1028.1
2022-11-24T09:39:24.331Z,1028.1
2022-11-24T09:40:24.403Z,1028.1
2022-11-24T09:41:24.368Z,1028.1
2022-11-24T09:42:24.405Z,1028.2
2022-11-24T09:43:24.296Z,1028.2
2022-11-24T09:44:24.322Z,1028.2
2022-11-24T09:45:41.931Z,1028.2
2022-11-24T09:46:24.422Z,1028.2
2022-11-24T09:47:24.358Z,1028.2
2022-11-24T09:48:24.313Z,1028.2
2022-11-24T09:49:24.343Z,1028.1
2022-11-24T09:50:24.298Z,1028.1
2022-11-24T09:51:24.303Z,1028.1
2022-11-24T09:52:24.327Z,1028.1
2022-11-24T09:53:24.319Z,1028
2022-11-24T09:54:24.296Z,1028.1
2022-11-24T09:55:24.357Z,1028.1
2022-11-24T09:56:24.292Z,1028.1
2022-11-24T09:57:24.294Z,1028.1
2022-11-24T09:58:24.286Z,1028.1
2022-11-24T09:59:24.308Z,1028.1
2022-11-24T10:00:24.340Z,1028.2
2022-11-24T10:01:24.447Z,1028.2
2022-11-24T10:02:24.362Z,1028.2
2022-11-24T10:03:24.283Z,1028.2
2022-11-24T10:04:24.390Z,1028.2
2022-11-24T10:05:24.333Z,1028.3
2022-11-24T10:06:24.307Z,1028.3
2022-11-24T10:07:24.349Z,1028.3
2022-11-24T10:08:24.329Z,1028.4
2022-11-24T10:09:24.285Z,1028.4
2022-11-24T10:10:24.972Z,1028.4
2022-11-24T10:11:24.286Z,1028.4
2022-11-24T10:12:24.321Z,1028.4
2022-11-24T10:13:24.319Z,1028.3
2022-11-24T10:14:24.267Z,1028.3
2022-11-24T10:15:24.319Z,1028.4
2022-11-24T10:16:24.361Z,1028.4
2022-11-24T10:17:24.279Z,1028.4
2022-11-24T10:18:24.310Z,1028.5
2022-11-24T10:19:30.502Z,1028.5
2022-11-24T10:20:24.299Z,1028.5
2022-11-24T10:21:24.330Z,1028.5
2022-11-24T10:22:24.265Z,1028.4
2022-11-24T10:23:24.326Z,1028.4
2022-11-24T10:24:24.312Z,1028.4
2022-11-24T10:25:24.262Z,1028.4
2022-11-24T10:26:24.263Z,1028.4
2022-11-24T10:27:24.252Z,1028.4
2022-11-24T10:28:24.295Z,1028.4
2022-11-24T10:29:24.284Z,1028.4
2022-11-24T10:30:24.260Z,1028.4
2022-11-24T10:31:24.329Z,1028.3
2022-11-24T10:32:24.272Z,1028.3
2022-11-24T10:33:30.077Z,1028.3
2022-11-24T10:34:24.285Z,1028.2
2022-11-24T10:35:24.279Z,1028.2
2022-11-24T10:36:24.340Z,1028.2
2022-11-24T10:37:24.227Z,1028.2
2022-11-24T10:38:24.247Z,1028.2
2022-11-24T10:39:24.243Z,1028.3
2022-11-24T10:40:49.012Z,1028.3
2022-11-24T10:41:24.276Z,1028.3
2022-11-24T10:42:24.304Z,1028.3
2022-11-24T10:43:24.318Z,1028.3
2022-11-24T10:44:24.253Z,1028.3
2022-11-24T10:45:24.285Z,1028.3
2022-11-24T10:46:24.288Z,1028.3
2022-11-24T10:47:24.229Z,1028.3
2022-11-24T10:48:24.227Z,1028.3
2022-11-24T10:49:24.263Z,1028.3
2022-11-24T10:50:24.246Z,1028.3
2022-11-24T10:51:24.228Z,1028.4
2022-11-24T10:52:24.281Z,1028.4
2022-11-24T10:53:24.241Z,1028.4
2022-11-24T10:54:24.250Z,1028.4
2022-11-24T10:55:24.244Z,1028.4
2022-11-24T10:56:24.270Z,1028.4
2022-11-24T10:57:24.278Z,1028.5
2022-11-24T10:58:24.202Z,1028.5
2022-11-24T10:59:24.256Z,1028.5
2022-11-24T11:00:24.213Z,1028.5
2022-11-24T11:01:24.273Z,1028.5
2022-11-24T11:02:24.316Z,1028.5
2022-11-24T11:03:24.251Z,1028.5
2022-11-24T11:04:24.226Z,1028.5
2022-11-24T11:05:24.251Z,1028.5
2022-11-24T11:06:24.252Z,1028.6
2022-11-24T11:07:24.377Z,1028.6
2022-11-24T11:08:25.539Z,1028.6
2022-11-24T11:09:24.389Z,1028.6
2022-11-24T11:10:24.266Z,1028.6
2022-11-24T11:11:24.202Z,1028.6
2022-11-24T11:12:43.704Z,1028.6
2022-11-24T11:13:24.254Z,1028.6
2022-11-24T11:14:24.200Z,1028.6
2022-11-24T11:15:24.254Z,1028.6
2022-11-24T11:16:24.453Z,1028.6
2022-11-24T11:17:24.243Z,1028.7
2022-11-24T11:18:24.175Z,1028.7
2022-11-24T11:19:47.124Z,1028.7
2022-11-24T11:20:24.187Z,1028.7
2022-11-24T11:21:24.182Z,1028.7
2022-11-24T11:22:24.240Z,1028.7
2022-11-24T11:23:24.246Z,1028.8
2022-11-24T11:24:24.247Z,1028.8
2022-11-24T11:25:24.226Z,1028.7
2022-11-24T11:26:24.215Z,1028.8
2022-11-24T11:27:24.207Z,1028.8
2022-11-24T11:28:24.263Z,1028.8
2022-11-24T11:31:24.670Z,1028.7
2022-11-24T11:34:35.488Z,1028.7
2022-11-24T11:35:24.185Z,1028.8
2022-11-24T11:36:24.230Z,1028.8
2022-11-24T11:37:24.172Z,1028.8
2022-11-24T11:38:24.176Z,1028.8
2022-11-24T11:39:24.305Z,1028.8
2022-11-24T11:40:24.197Z,1028.8
2022-11-24T11:41:24.265Z,1028.8
2022-11-24T11:42:45.753Z,1028.8
2022-11-24T11:43:24.155Z,1028.8
2022-11-24T11:44:24.153Z,1028.8
2022-11-24T11:45:24.183Z,1028.9
2022-11-24T11:46:24.229Z,1028.9
2022-11-24T11:47:24.148Z,1028.9
2022-11-24T11:48:24.182Z,1028.9
2022-11-24T11:49:24.143Z,1028.9
2022-11-24T11:50:24.177Z,1028.9
2022-11-24T11:51:24.573Z,1028.9
2022-11-24T11:52:24.143Z,1028.9
2022-11-24T11:53:24.181Z,1028.9
2022-11-24T11:54:24.147Z,1028.9
2022-11-24T11:55:24.146Z,1028.9
2022-11-24T11:56:24.198Z,1028.9
2022-11-24T11:57:24.132Z,1028.9
2022-11-24T11:58:24.147Z,1028.9
2022-11-24T11:59:24.195Z,1029
2022-11-24T12:00:24.137Z,1029
2022-11-24T12:01:24.249Z,1028.9
2022-11-24T12:02:24.334Z,1029
2022-11-24T12:03:24.185Z,1029
2022-11-24T12:04:24.126Z,1029
2022-11-24T12:05:24.127Z,1029
2022-11-24T12:06:24.213Z,1029
2022-11-24T12:07:24.230Z,1029
2022-11-24T12:08:24.208Z,1029
2022-11-24T12:09:26.421Z,1029
2022-11-24T12:10:24.130Z,1029
2022-11-24T12:11:24.167Z,1029
2022-11-24T12:12:25.353Z,1029
2022-11-24T12:13:24.125Z,1029
2022-11-24T12:14:24.159Z,1029
2022-11-24T12:15:24.123Z,1029.1
2022-11-24T12:16:24.250Z,1029.1
2022-11-24T12:17:24.115Z,1029.1
2022-11-24T12:18:48.901Z,1029.1
2022-11-24T12:19:24.150Z,1029.1
2022-11-24T12:20:24.101Z,1029.1
2022-11-24T12:21:26.553Z,1029.1
2022-11-24T12:22:24.108Z,1029.1
2022-11-24T12:23:24.104Z,1029.1
2022-11-24T12:24:24.341Z,1029.2
2022-11-24T12:25:24.215Z,1029.2
2022-11-24T12:26:24.088Z,1029.2
2022-11-24T12:27:24.146Z,1029.2
2022-11-24T12:28:24.203Z,1029.3
2022-11-24T12:29:24.160Z,1029.3
2022-11-24T12:30:24.109Z,1029.4
2022-11-24T12:31:24.223Z,1029.4
2022-11-24T12:32:24.124Z,1029.4
2022-11-24T12:33:24.109Z,1029.4
2022-11-24T12:34:24.133Z,1029.4
2022-11-24T12:35:24.122Z,1029.4
2022-11-24T12:36:24.116Z,1029.4